sensor_id;sensor_type;location;lat;lon;timestamp;P1;durP1;ratioP1;P2;durP2;ratioP2
23101;SDS011;11720;51.214;22.574;2023-04-25T00:00:39;9.50;;;5.80;;
23101;SDS011;11720;51.214;22.574;2023-04-25T00:03:04;10.23;;;5.93;;
23101;SDS011;11720;51.214;22.574;2023-04-25T00:05:31;10.52;;;5.15;;
23101;SDS011;11720;51.214;22.574;2023-04-25T00:07:57;8.32;;;5.22;;
23101;SDS011;11720;51.214;22.574;2023-04-25T00:10:23;14.32;;;7.22;;
23101;SDS011;11720;51.214;22.574;2023-04-25T00:12:49;11.43;;;6.72;;
23101;SDS011;11720;51.214;22.574;2023-04-25T00:15:14;15.02;;;5.75;;
23101;SDS011;11720;51.214;22.574;2023-04-25T00:17:41;12.77;;;7.50;;
23101;SDS011;11720;51.214;22.574;2023-04-25T00:20:07;9.98;;;5.93;;
23101;SDS011;11720;51.214;22.574;2023-04-25T00:22:36;10.70;;;6.28;;
23101;SDS011;11720;51.214;22.574;2023-04-25T00:25:05;11.60;;;5.85;;
23101;SDS011;11720;51.214;22.574;2023-04-25T00:27:31;10.65;;;5.95;;
23101;SDS011;11720;51.214;22.574;2023-04-25T00:29:57;8.18;;;5.68;;
23101;SDS011;11720;51.214;22.574;2023-04-25T00:32:23;8.57;;;5.80;;
23101;SDS011;11720;51.214;22.574;2023-04-25T00:34:49;9.77;;;5.70;;
23101;SDS011;11720;51.214;22.574;2023-04-25T00:37:14;11.52;;;5.32;;
23101;SDS011;11720;51.214;22.574;2023-04-25T00:39:40;8.57;;;6.13;;
23101;SDS011;11720;51.214;22.574;2023-04-25T00:42:06;9.70;;;5.80;;
23101;SDS011;11720;51.214;22.574;2023-04-25T00:44:33;8.85;;;5.35;;
23101;SDS011;11720;51.214;22.574;2023-04-25T00:47:01;12.10;;;5.47;;
23101;SDS011;11720;51.214;22.574;2023-04-25T00:49:27;9.55;;;5.72;;
23101;SDS011;11720;51.214;22.574;2023-04-25T00:51:52;8.45;;;5.47;;
23101;SDS011;11720;51.214;22.574;2023-04-25T00:54:18;9.15;;;4.80;;
23101;SDS011;11720;51.214;22.574;2023-04-25T00:56:44;9.52;;;6.03;;
23101;SDS011;11720;51.214;22.574;2023-04-25T00:59:10;9.85;;;5.57;;
23101;SDS011;11720;51.214;22.574;2023-04-25T01:01:36;7.35;;;5.15;;
23101;SDS011;11720;51.214;22.574;2023-04-25T01:04:04;8.02;;;5.28;;
23101;SDS011;11720;51.214;22.574;2023-04-25T01:06:30;9.57;;;5.93;;
23101;SDS011;11720;51.214;22.574;2023-04-25T01:08:56;13.95;;;6.60;;
23101;SDS011;11720;51.214;22.574;2023-04-25T01:11:23;7.18;;;4.90;;
23101;SDS011;11720;51.214;22.574;2023-04-25T01:13:48;7.22;;;5.10;;
23101;SDS011;11720;51.214;22.574;2023-04-25T01:16:14;11.25;;;5.70;;
23101;SDS011;11720;51.214;22.574;2023-04-25T01:18:40;9.70;;;5.60;;
23101;SDS011;11720;51.214;22.574;2023-04-25T01:21:11;10.95;;;5.72;;
23101;SDS011;11720;51.214;22.574;2023-04-25T01:23:38;8.82;;;5.80;;
23101;SDS011;11720;51.214;22.574;2023-04-25T01:26:06;11.10;;;6.28;;
23101;SDS011;11720;51.214;22.574;2023-04-25T01:28:33;10.73;;;6.25;;
23101;SDS011;11720;51.214;22.574;2023-04-25T01:31:00;8.85;;;5.80;;
23101;SDS011;11720;51.214;22.574;2023-04-25T01:33:26;9.88;;;5.63;;
23101;SDS011;11720;51.214;22.574;2023-04-25T01:35:52;9.30;;;5.82;;
23101;SDS011;11720;51.214;22.574;2023-04-25T01:38:17;9.45;;;5.63;;
23101;SDS011;11720;51.214;22.574;2023-04-25T01:40:44;10.90;;;6.43;;
23101;SDS011;11720;51.214;22.574;2023-04-25T01:43:12;9.00;;;5.50;;
23101;SDS011;11720;51.214;22.574;2023-04-25T01:45:39;11.88;;;6.03;;
23101;SDS011;11720;51.214;22.574;2023-04-25T01:48:06;9.68;;;5.95;;
23101;SDS011;11720;51.214;22.574;2023-04-25T01:50:33;11.35;;;6.47;;
23101;SDS011;11720;51.214;22.574;2023-04-25T01:52:59;10.20;;;6.43;;
23101;SDS011;11720;51.214;22.574;2023-04-25T01:55:26;13.93;;;6.07;;
23101;SDS011;11720;51.214;22.574;2023-04-25T01:57:52;9.52;;;5.88;;
23101;SDS011;11720;51.214;22.574;2023-04-25T02:00:18;8.82;;;5.90;;
23101;SDS011;11720;51.214;22.574;2023-04-25T02:02:44;9.65;;;6.28;;
23101;SDS011;11720;51.214;22.574;2023-04-25T02:05:09;8.68;;;5.75;;
23101;SDS011;11720;51.214;22.574;2023-04-25T02:07:35;8.45;;;5.55;;
23101;SDS011;11720;51.214;22.574;2023-04-25T02:10:01;11.23;;;6.43;;
23101;SDS011;11720;51.214;22.574;2023-04-25T02:12:27;9.05;;;6.32;;
23101;SDS011;11720;51.214;22.574;2023-04-25T02:14:53;9.90;;;5.88;;
23101;SDS011;11720;51.214;22.574;2023-04-25T02:17:19;9.15;;;5.63;;
23101;SDS011;11720;51.214;22.574;2023-04-25T02:19:46;9.70;;;6.93;;
23101;SDS011;11720;51.214;22.574;2023-04-25T02:22:12;11.65;;;6.55;;
23101;SDS011;11720;51.214;22.574;2023-04-25T02:24:38;10.93;;;6.25;;
23101;SDS011;11720;51.214;22.574;2023-04-25T02:27:04;9.35;;;5.97;;
23101;SDS011;11720;51.214;22.574;2023-04-25T02:29:30;10.85;;;5.40;;
23101;SDS011;11720;51.214;22.574;2023-04-25T02:31:56;12.48;;;5.95;;
23101;SDS011;11720;51.214;22.574;2023-04-25T02:34:22;7.72;;;5.32;;
23101;SDS011;11720;51.214;22.574;2023-04-25T02:36:48;12.00;;;6.97;;
23101;SDS011;11720;51.214;22.574;2023-04-25T02:39:17;9.45;;;5.95;;
23101;SDS011;11720;51.214;22.574;2023-04-25T02:41:43;13.15;;;5.82;;
23101;SDS011;11720;51.214;22.574;2023-04-25T02:44:09;9.55;;;6.20;;
23101;SDS011;11720;51.214;22.574;2023-04-25T02:46:35;13.25;;;6.50;;
23101;SDS011;11720;51.214;22.574;2023-04-25T02:49:01;9.73;;;5.85;;
23101;SDS011;11720;51.214;22.574;2023-04-25T02:51:27;17.90;;;6.40;;
23101;SDS011;11720;51.214;22.574;2023-04-25T02:53:52;13.43;;;6.72;;
23101;SDS011;11720;51.214;22.574;2023-04-25T02:56:18;14.45;;;7.57;;
23101;SDS011;11720;51.214;22.574;2023-04-25T02:58:43;9.55;;;5.90;;
23101;SDS011;11720;51.214;22.574;2023-04-25T03:01:10;10.40;;;5.80;;
23101;SDS011;11720;51.214;22.574;2023-04-25T03:03:35;10.40;;;6.30;;
23101;SDS011;11720;51.214;22.574;2023-04-25T03:06:01;17.23;;;6.72;;
23101;SDS011;11720;51.214;22.574;2023-04-25T03:08:27;9.63;;;6.25;;
23101;SDS011;11720;51.214;22.574;2023-04-25T03:10:57;9.98;;;5.80;;
23101;SDS011;11720;51.214;22.574;2023-04-25T03:13:23;11.32;;;7.50;;
23101;SDS011;11720;51.214;22.574;2023-04-25T03:15:49;11.75;;;6.85;;
23101;SDS011;11720;51.214;22.574;2023-04-25T03:18:15;13.63;;;7.82;;
23101;SDS011;11720;51.214;22.574;2023-04-25T03:20:41;12.20;;;7.13;;
23101;SDS011;11720;51.214;22.574;2023-04-25T03:23:06;12.95;;;7.47;;
23101;SDS011;11720;51.214;22.574;2023-04-25T03:25:33;13.23;;;8.45;;
23101;SDS011;11720;51.214;22.574;2023-04-25T03:27:58;12.13;;;7.90;;
23101;SDS011;11720;51.214;22.574;2023-04-25T03:30:24;13.23;;;7.40;;
23101;SDS011;11720;51.214;22.574;2023-04-25T03:32:50;14.50;;;8.02;;
23101;SDS011;11720;51.214;22.574;2023-04-25T03:35:16;13.75;;;7.78;;
23101;SDS011;11720;51.214;22.574;2023-04-25T03:37:42;13.90;;;8.38;;
23101;SDS011;11720;51.214;22.574;2023-04-25T03:40:11;17.50;;;10.23;;
23101;SDS011;11720;51.214;22.574;2023-04-25T03:42:36;18.00;;;10.07;;
23101;SDS011;11720;51.214;22.574;2023-04-25T03:45:03;16.42;;;10.30;;
23101;SDS011;11720;51.214;22.574;2023-04-25T03:47:29;17.00;;;8.73;;
23101;SDS011;11720;51.214;22.574;2023-04-25T03:49:55;11.05;;;7.18;;
23101;SDS011;11720;51.214;22.574;2023-04-25T03:52:21;13.63;;;8.18;;
23101;SDS011;11720;51.214;22.574;2023-04-25T03:54:47;25.60;;;16.38;;
23101;SDS011;11720;51.214;22.574;2023-04-25T03:57:13;16.38;;;9.88;;
23101;SDS011;11720;51.214;22.574;2023-04-25T03:59:39;23.35;;;13.05;;
23101;SDS011;11720;51.214;22.574;2023-04-25T04:02:04;21.58;;;13.32;;
23101;SDS011;11720;51.214;22.574;2023-04-25T04:04:30;15.75;;;8.32;;
23101;SDS011;11720;51.214;22.574;2023-04-25T04:06:56;12.68;;;7.75;;
23101;SDS011;11720;51.214;22.574;2023-04-25T04:09:22;13.23;;;9.10;;
23101;SDS011;11720;51.214;22.574;2023-04-25T04:11:48;20.58;;;13.90;;
23101;SDS011;11720;51.214;22.574;2023-04-25T04:14:14;15.90;;;8.38;;
23101;SDS011;11720;51.214;22.574;2023-04-25T04:16:40;10.57;;;6.60;;
23101;SDS011;11720;51.214;22.574;2023-04-25T04:19:06;11.73;;;6.68;;
23101;SDS011;11720;51.214;22.574;2023-04-25T04:21:31;10.63;;;6.65;;
23101;SDS011;11720;51.214;22.574;2023-04-25T04:23:58;11.85;;;7.45;;
23101;SDS011;11720;51.214;22.574;2023-04-25T04:26:25;12.95;;;7.00;;
23101;SDS011;11720;51.214;22.574;2023-04-25T04:28:51;9.32;;;6.40;;
23101;SDS011;11720;51.214;22.574;2023-04-25T04:31:19;8.10;;;5.63;;
23101;SDS011;11720;51.214;22.574;2023-04-25T04:33:45;9.77;;;6.20;;
23101;SDS011;11720;51.214;22.574;2023-04-25T04:36:11;9.90;;;6.30;;
23101;SDS011;11720;51.214;22.574;2023-04-25T04:38:37;10.75;;;6.43;;
23101;SDS011;11720;51.214;22.574;2023-04-25T04:41:03;10.30;;;6.80;;
23101;SDS011;11720;51.214;22.574;2023-04-25T04:43:29;9.52;;;6.10;;
23101;SDS011;11720;51.214;22.574;2023-04-25T04:45:57;10.45;;;5.38;;
23101;SDS011;11720;51.214;22.574;2023-04-25T04:48:23;11.38;;;6.38;;
23101;SDS011;11720;51.214;22.574;2023-04-25T04:50:49;9.82;;;5.85;;
23101;SDS011;11720;51.214;22.574;2023-04-25T04:53:15;14.85;;;6.57;;
23101;SDS011;11720;51.214;22.574;2023-04-25T04:55:41;13.15;;;6.43;;
23101;SDS011;11720;51.214;22.574;2023-04-25T04:58:07;9.45;;;6.10;;
23101;SDS011;11720;51.214;22.574;2023-04-25T05:00:33;14.13;;;7.40;;
23101;SDS011;11720;51.214;22.574;2023-04-25T05:02:59;11.57;;;6.30;;
23101;SDS011;11720;51.214;22.574;2023-04-25T05:05:25;11.50;;;6.65;;
23101;SDS011;11720;51.214;22.574;2023-04-25T05:07:51;13.48;;;7.03;;
23101;SDS011;11720;51.214;22.574;2023-04-25T05:10:18;19.80;;;9.40;;
23101;SDS011;11720;51.214;22.574;2023-04-25T05:12:45;12.13;;;7.03;;
23101;SDS011;11720;51.214;22.574;2023-04-25T05:15:11;10.02;;;6.43;;
23101;SDS011;11720;51.214;22.574;2023-04-25T05:17:37;12.95;;;7.10;;
23101;SDS011;11720;51.214;22.574;2023-04-25T05:20:04;13.32;;;7.13;;
23101;SDS011;11720;51.214;22.574;2023-04-25T05:22:36;12.07;;;6.65;;
23101;SDS011;11720;51.214;22.574;2023-04-25T05:25:02;11.40;;;6.82;;
23101;SDS011;11720;51.214;22.574;2023-04-25T05:27:28;11.27;;;6.45;;
23101;SDS011;11720;51.214;22.574;2023-04-25T05:29:54;10.43;;;5.53;;
23101;SDS011;11720;51.214;22.574;2023-04-25T05:32:20;8.25;;;4.90;;
23101;SDS011;11720;51.214;22.574;2023-04-25T05:34:45;11.98;;;5.57;;
23101;SDS011;11720;51.214;22.574;2023-04-25T05:37:11;15.60;;;7.70;;
23101;SDS011;11720;51.214;22.574;2023-04-25T05:39:37;11.32;;;5.80;;
23101;SDS011;11720;51.214;22.574;2023-04-25T05:42:03;7.97;;;5.35;;
23101;SDS011;11720;51.214;22.574;2023-04-25T05:44:29;10.27;;;5.40;;
23101;SDS011;11720;51.214;22.574;2023-04-25T05:46:55;9.60;;;5.15;;
23101;SDS011;11720;51.214;22.574;2023-04-25T05:49:21;10.20;;;5.90;;
23101;SDS011;11720;51.214;22.574;2023-04-25T05:51:47;7.38;;;4.72;;
23101;SDS011;11720;51.214;22.574;2023-04-25T05:54:13;11.52;;;5.00;;
23101;SDS011;11720;51.214;22.574;2023-04-25T05:56:39;10.13;;;4.88;;
23101;SDS011;11720;51.214;22.574;2023-04-25T05:59:05;7.55;;;4.95;;
23101;SDS011;11720;51.214;22.574;2023-04-25T06:01:31;12.25;;;4.60;;
23101;SDS011;11720;51.214;22.574;2023-04-25T06:03:58;9.07;;;5.45;;
23101;SDS011;11720;51.214;22.574;2023-04-25T06:06:30;9.15;;;5.50;;
23101;SDS011;11720;51.214;22.574;2023-04-25T06:08:58;10.35;;;5.10;;
23101;SDS011;11720;51.214;22.574;2023-04-25T06:11:24;11.50;;;5.00;;
23101;SDS011;11720;51.214;22.574;2023-04-25T06:13:50;13.50;;;5.90;;
23101;SDS011;11720;51.214;22.574;2023-04-25T06:16:16;8.13;;;4.93;;
23101;SDS011;11720;51.214;22.574;2023-04-25T06:18:42;10.02;;;5.30;;
23101;SDS011;11720;51.214;22.574;2023-04-25T06:21:08;8.25;;;5.05;;
23101;SDS011;11720;51.214;22.574;2023-04-25T06:23:34;8.63;;;5.03;;
23101;SDS011;11720;51.214;22.574;2023-04-25T06:26:01;9.50;;;5.07;;
23101;SDS011;11720;51.214;22.574;2023-04-25T06:28:27;13.30;;;5.60;;
23101;SDS011;11720;51.214;22.574;2023-04-25T06:30:54;8.23;;;5.25;;
23101;SDS011;11720;51.214;22.574;2023-04-25T06:33:19;8.85;;;5.88;;
23101;SDS011;11720;51.214;22.574;2023-04-25T06:35:46;7.78;;;5.60;;
23101;SDS011;11720;51.214;22.574;2023-04-25T06:38:12;11.25;;;5.20;;
23101;SDS011;11720;51.214;22.574;2023-04-25T06:40:38;9.00;;;5.75;;
23101;SDS011;11720;51.214;22.574;2023-04-25T06:43:04;11.93;;;5.20;;
23101;SDS011;11720;51.214;22.574;2023-04-25T06:45:30;9.85;;;5.38;;
23101;SDS011;11720;51.214;22.574;2023-04-25T06:47:56;8.68;;;4.75;;
23101;SDS011;11720;51.214;22.574;2023-04-25T06:50:21;7.43;;;4.13;;
23101;SDS011;11720;51.214;22.574;2023-04-25T06:52:47;7.00;;;4.85;;
23101;SDS011;11720;51.214;22.574;2023-04-25T06:55:16;6.47;;;4.53;;
23101;SDS011;11720;51.214;22.574;2023-04-25T06:57:42;8.00;;;5.00;;
23101;SDS011;11720;51.214;22.574;2023-04-25T07:00:08;9.90;;;5.18;;
23101;SDS011;11720;51.214;22.574;2023-04-25T07:02:34;9.10;;;5.55;;
23101;SDS011;11720;51.214;22.574;2023-04-25T07:05:01;8.35;;;4.75;;
23101;SDS011;11720;51.214;22.574;2023-04-25T07:07:30;9.10;;;5.20;;
23101;SDS011;11720;51.214;22.574;2023-04-25T07:09:56;8.27;;;4.57;;
23101;SDS011;11720;51.214;22.574;2023-04-25T07:12:22;6.07;;;4.10;;
23101;SDS011;11720;51.214;22.574;2023-04-25T07:14:48;7.68;;;4.65;;
23101;SDS011;11720;51.214;22.574;2023-04-25T07:17:15;7.93;;;5.00;;
23101;SDS011;11720;51.214;22.574;2023-04-25T07:19:41;6.18;;;4.22;;
23101;SDS011;11720;51.214;22.574;2023-04-25T07:22:08;6.70;;;4.20;;
23101;SDS011;11720;51.214;22.574;2023-04-25T07:24:34;8.70;;;5.50;;
23101;SDS011;11720;51.214;22.574;2023-04-25T07:27:00;7.32;;;4.38;;
23101;SDS011;11720;51.214;22.574;2023-04-25T07:29:27;9.07;;;4.78;;
23101;SDS011;11720;51.214;22.574;2023-04-25T07:31:53;8.07;;;4.45;;
23101;SDS011;11720;51.214;22.574;2023-04-25T07:34:19;10.77;;;5.13;;
23101;SDS011;11720;51.214;22.574;2023-04-25T07:36:44;10.70;;;5.18;;
23101;SDS011;11720;51.214;22.574;2023-04-25T07:39:10;7.60;;;4.90;;
23101;SDS011;11720;51.214;22.574;2023-04-25T07:41:36;11.25;;;4.45;;
23101;SDS011;11720;51.214;22.574;2023-04-25T07:44:02;5.38;;;3.80;;
23101;SDS011;11720;51.214;22.574;2023-04-25T07:46:28;6.27;;;4.10;;
23101;SDS011;11720;51.214;22.574;2023-04-25T07:48:54;6.35;;;4.10;;
23101;SDS011;11720;51.214;22.574;2023-04-25T07:51:19;9.80;;;3.97;;
23101;SDS011;11720;51.214;22.574;2023-04-25T07:53:47;6.72;;;3.90;;
23101;SDS011;11720;51.214;22.574;2023-04-25T07:56:12;8.43;;;4.97;;
23101;SDS011;11720;51.214;22.574;2023-04-25T07:58:38;6.55;;;4.90;;
23101;SDS011;11720;51.214;22.574;2023-04-25T08:01:04;5.57;;;3.92;;
23101;SDS011;11720;51.214;22.574;2023-04-25T08:03:30;5.65;;;4.03;;
23101;SDS011;11720;51.214;22.574;2023-04-25T08:05:56;8.57;;;3.53;;
23101;SDS011;11720;51.214;22.574;2023-04-25T08:08:21;5.50;;;3.53;;
23101;SDS011;11720;51.214;22.574;2023-04-25T08:10:48;5.88;;;3.40;;
23101;SDS011;11720;51.214;22.574;2023-04-25T08:13:13;4.95;;;3.53;;
23101;SDS011;11720;51.214;22.574;2023-04-25T08:15:39;4.47;;;3.35;;
23101;SDS011;11720;51.214;22.574;2023-04-25T08:18:05;4.55;;;2.83;;
23101;SDS011;11720;51.214;22.574;2023-04-25T08:20:31;5.35;;;3.42;;
23101;SDS011;11720;51.214;22.574;2023-04-25T08:22:57;3.97;;;3.45;;
23101;SDS011;11720;51.214;22.574;2023-04-25T08:25:22;4.40;;;3.40;;
23101;SDS011;11720;51.214;22.574;2023-04-25T08:27:48;4.45;;;2.90;;
23101;SDS011;11720;51.214;22.574;2023-04-25T08:30:13;4.63;;;2.92;;
23101;SDS011;11720;51.214;22.574;2023-04-25T08:32:39;3.70;;;2.97;;
23101;SDS011;11720;51.214;22.574;2023-04-25T08:35:05;4.57;;;3.03;;
23101;SDS011;11720;51.214;22.574;2023-04-25T08:37:32;4.03;;;3.00;;
23101;SDS011;11720;51.214;22.574;2023-04-25T08:39:57;6.80;;;2.53;;
23101;SDS011;11720;51.214;22.574;2023-04-25T08:42:24;6.57;;;3.15;;
23101;SDS011;11720;51.214;22.574;2023-04-25T08:44:52;4.30;;;3.03;;
23101;SDS011;11720;51.214;22.574;2023-04-25T08:47:20;4.95;;;3.17;;
23101;SDS011;11720;51.214;22.574;2023-04-25T08:49:47;5.25;;;3.50;;
23101;SDS011;11720;51.214;22.574;2023-04-25T08:52:14;6.43;;;3.30;;
23101;SDS011;11720;51.214;22.574;2023-04-25T08:54:44;5.35;;;3.47;;
23101;SDS011;11720;51.214;22.574;2023-04-25T08:57:13;5.88;;;3.67;;
23101;SDS011;11720;51.214;22.574;2023-04-25T08:59:40;5.60;;;3.70;;
23101;SDS011;11720;51.214;22.574;2023-04-25T09:02:10;3.92;;;3.15;;
23101;SDS011;11720;51.214;22.574;2023-04-25T09:04:39;7.38;;;3.78;;
23101;SDS011;11720;51.214;22.574;2023-04-25T09:07:05;3.97;;;3.00;;
23101;SDS011;11720;51.214;22.574;2023-04-25T09:09:31;2.90;;;2.60;;
23101;SDS011;11720;51.214;22.574;2023-04-25T09:11:57;6.53;;;3.70;;
23101;SDS011;11720;51.214;22.574;2023-04-25T09:14:24;4.05;;;3.28;;
23101;SDS011;11720;51.214;22.574;2023-04-25T09:16:57;4.65;;;3.30;;
23101;SDS011;11720;51.214;22.574;2023-04-25T09:19:29;5.50;;;3.85;;
23101;SDS011;11720;51.214;22.574;2023-04-25T09:22:01;6.88;;;3.85;;
23101;SDS011;11720;51.214;22.574;2023-04-25T09:27:08;7.97;;;4.15;;
23101;SDS011;11720;51.214;22.574;2023-04-25T09:29:36;6.45;;;4.10;;
23101;SDS011;11720;51.214;22.574;2023-04-25T09:34:54;4.90;;;3.17;;
23101;SDS011;11720;51.214;22.574;2023-04-25T09:37:22;6.85;;;4.18;;
23101;SDS011;11720;51.214;22.574;2023-04-25T09:39:58;8.13;;;4.47;;
23101;SDS011;11720;51.214;22.574;2023-04-25T09:42:28;7.55;;;4.88;;
23101;SDS011;11720;51.214;22.574;2023-04-25T09:44:56;6.45;;;4.57;;
23101;SDS011;11720;51.214;22.574;2023-04-25T09:47:23;9.60;;;4.20;;
23101;SDS011;11720;51.214;22.574;2023-04-25T09:49:50;6.88;;;4.72;;
23101;SDS011;11720;51.214;22.574;2023-04-25T09:52:23;6.45;;;4.50;;
23101;SDS011;11720;51.214;22.574;2023-04-25T09:54:50;12.90;;;4.70;;
23101;SDS011;11720;51.214;22.574;2023-04-25T09:57:17;9.85;;;5.50;;
23101;SDS011;11720;51.214;22.574;2023-04-25T09:59:48;8.75;;;5.28;;
23101;SDS011;11720;51.214;22.574;2023-04-25T10:02:19;7.72;;;4.82;;
23101;SDS011;11720;51.214;22.574;2023-04-25T10:04:50;8.65;;;4.85;;
23101;SDS011;11720;51.214;22.574;2023-04-25T10:07:20;8.90;;;5.30;;
23101;SDS011;11720;51.214;22.574;2023-04-25T10:09:50;8.98;;;5.43;;
23101;SDS011;11720;51.214;22.574;2023-04-25T10:12:28;10.23;;;5.53;;
23101;SDS011;11720;51.214;22.574;2023-04-25T10:14:56;6.85;;;4.88;;
23101;SDS011;11720;51.214;22.574;2023-04-25T10:17:23;7.22;;;4.70;;
23101;SDS011;11720;51.214;22.574;2023-04-25T10:19:52;8.80;;;4.95;;
23101;SDS011;11720;51.214;22.574;2023-04-25T10:22:35;10.75;;;6.68;;
23101;SDS011;11720;51.214;22.574;2023-04-25T10:25:03;11.43;;;5.88;;
23101;SDS011;11720;51.214;22.574;2023-04-25T10:27:30;12.30;;;6.93;;
23101;SDS011;11720;51.214;22.574;2023-04-25T10:30:09;10.93;;;6.25;;
23101;SDS011;11720;51.214;22.574;2023-04-25T10:32:39;7.57;;;4.80;;
23101;SDS011;11720;51.214;22.574;2023-04-25T10:35:11;9.48;;;6.03;;
23101;SDS011;11720;51.214;22.574;2023-04-25T10:38:03;9.82;;;5.70;;
23101;SDS011;11720;51.214;22.574;2023-04-25T10:40:35;5.97;;;3.88;;
23101;SDS011;11720;51.214;22.574;2023-04-25T10:46:24;6.93;;;4.20;;
23101;SDS011;11720;51.214;22.574;2023-04-25T10:54:00;6.43;;;4.68;;
23101;SDS011;11720;51.214;22.574;2023-04-25T10:56:30;8.23;;;5.03;;
23101;SDS011;11720;51.214;22.574;2023-04-25T10:59:05;5.55;;;4.18;;
23101;SDS011;11720;51.214;22.574;2023-04-25T11:01:37;6.68;;;4.22;;
23101;SDS011;11720;51.214;22.574;2023-04-25T11:04:20;8.32;;;4.50;;
23101;SDS011;11720;51.214;22.574;2023-04-25T11:09:35;5.97;;;3.97;;
23101;SDS011;11720;51.214;22.574;2023-04-25T11:12:03;9.25;;;5.47;;
23101;SDS011;11720;51.214;22.574;2023-04-25T11:14:30;9.43;;;5.85;;
23101;SDS011;11720;51.214;22.574;2023-04-25T11:16:56;23.45;;;9.35;;
23101;SDS011;11720;51.214;22.574;2023-04-25T11:19:23;10.07;;;5.35;;
23101;SDS011;11720;51.214;22.574;2023-04-25T11:21:50;8.60;;;5.10;;
23101;SDS011;11720;51.214;22.574;2023-04-25T11:24:16;10.82;;;5.22;;
23101;SDS011;11720;51.214;22.574;2023-04-25T11:26:43;13.15;;;5.80;;
23101;SDS011;11720;51.214;22.574;2023-04-25T11:29:09;15.00;;;5.95;;
23101;SDS011;11720;51.214;22.574;2023-04-25T11:31:35;8.65;;;4.50;;
23101;SDS011;11720;51.214;22.574;2023-04-25T11:34:00;18.15;;;8.80;;
23101;SDS011;11720;51.214;22.574;2023-04-25T11:36:27;13.77;;;7.90;;
23101;SDS011;11720;51.214;22.574;2023-04-25T11:38:53;16.08;;;7.85;;
23101;SDS011;11720;51.214;22.574;2023-04-25T11:41:19;19.88;;;8.80;;
23101;SDS011;11720;51.214;22.574;2023-04-25T11:43:47;12.05;;;6.55;;
23101;SDS011;11720;51.214;22.574;2023-04-25T11:46:13;24.20;;;12.70;;
23101;SDS011;11720;51.214;22.574;2023-04-25T11:48:40;12.15;;;7.63;;
23101;SDS011;11720;51.214;22.574;2023-04-25T11:51:07;8.13;;;4.78;;
23101;SDS011;11720;51.214;22.574;2023-04-25T11:53:33;6.70;;;4.50;;
23101;SDS011;11720;51.214;22.574;2023-04-25T11:56:00;7.15;;;3.53;;
23101;SDS011;11720;51.214;22.574;2023-04-25T11:58:26;3.75;;;3.10;;
23101;SDS011;11720;51.214;22.574;2023-04-25T12:00:52;5.32;;;2.50;;
23101;SDS011;11720;51.214;22.574;2023-04-25T12:03:18;3.50;;;2.50;;
23101;SDS011;11720;51.214;22.574;2023-04-25T12:05:45;2.90;;;2.63;;
23101;SDS011;11720;51.214;22.574;2023-04-25T12:08:11;3.92;;;2.65;;
23101;SDS011;11720;51.214;22.574;2023-04-25T12:10:38;3.67;;;2.70;;
23101;SDS011;11720;51.214;22.574;2023-04-25T12:13:21;5.50;;;2.65;;
23101;SDS011;11720;51.214;22.574;2023-04-25T12:15:51;3.72;;;2.53;;
23101;SDS011;11720;51.214;22.574;2023-04-25T12:18:23;4.28;;;3.05;;
23101;SDS011;11720;51.214;22.574;2023-04-25T12:20:52;4.28;;;2.53;;
23101;SDS011;11720;51.214;22.574;2023-04-25T12:23:24;4.18;;;2.72;;
23101;SDS011;11720;51.214;22.574;2023-04-25T12:25:51;3.13;;;2.78;;
23101;SDS011;11720;51.214;22.574;2023-04-25T12:28:21;7.13;;;3.22;;
23101;SDS011;11720;51.214;22.574;2023-04-25T12:33:26;5.88;;;3.80;;
23101;SDS011;11720;51.214;22.574;2023-04-25T12:35:56;4.78;;;3.72;;
23101;SDS011;11720;51.214;22.574;2023-04-25T12:38:28;4.68;;;3.05;;
23101;SDS011;11720;51.214;22.574;2023-04-25T12:40:56;4.88;;;2.95;;
23101;SDS011;11720;51.214;22.574;2023-04-25T12:43:22;4.72;;;3.25;;
23101;SDS011;11720;51.214;22.574;2023-04-25T12:45:54;7.50;;;4.32;;
23101;SDS011;11720;51.214;22.574;2023-04-25T12:48:20;6.90;;;4.18;;
23101;SDS011;11720;51.214;22.574;2023-04-25T12:50:47;5.95;;;3.92;;
23101;SDS011;11720;51.214;22.574;2023-04-25T12:53:20;5.53;;;4.03;;
23101;SDS011;11720;51.214;22.574;2023-04-25T12:55:47;5.55;;;4.10;;
23101;SDS011;11720;51.214;22.574;2023-04-25T12:58:13;7.53;;;4.40;;
23101;SDS011;11720;51.214;22.574;2023-04-25T13:00:40;13.50;;;6.90;;
23101;SDS011;11720;51.214;22.574;2023-04-25T13:03:05;6.55;;;3.92;;
23101;SDS011;11720;51.214;22.574;2023-04-25T13:05:31;5.90;;;4.00;;
23101;SDS011;11720;51.214;22.574;2023-04-25T13:07:57;6.35;;;4.25;;
23101;SDS011;11720;51.214;22.574;2023-04-25T13:10:24;6.68;;;4.60;;
23101;SDS011;11720;51.214;22.574;2023-04-25T13:12:50;7.55;;;4.10;;
23101;SDS011;11720;51.214;22.574;2023-04-25T13:15:15;6.45;;;3.88;;
23101;SDS011;11720;51.214;22.574;2023-04-25T13:17:42;8.35;;;5.10;;
23101;SDS011;11720;51.214;22.574;2023-04-25T13:20:08;6.43;;;4.10;;
23101;SDS011;11720;51.214;22.574;2023-04-25T13:22:35;6.07;;;4.65;;
23101;SDS011;11720;51.214;22.574;2023-04-25T13:25:03;8.52;;;5.40;;
23101;SDS011;11720;51.214;22.574;2023-04-25T13:27:30;8.57;;;4.75;;
23101;SDS011;11720;51.214;22.574;2023-04-25T13:29:57;5.53;;;4.40;;
23101;SDS011;11720;51.214;22.574;2023-04-25T13:32:23;7.03;;;4.40;;
23101;SDS011;11720;51.214;22.574;2023-04-25T13:34:50;9.85;;;6.18;;
23101;SDS011;11720;51.214;22.574;2023-04-25T13:37:16;7.15;;;4.32;;
23101;SDS011;11720;51.214;22.574;2023-04-25T13:39:42;9.38;;;4.50;;
23101;SDS011;11720;51.214;22.574;2023-04-25T13:42:08;8.35;;;5.30;;
23101;SDS011;11720;51.214;22.574;2023-04-25T13:44:33;9.20;;;5.35;;
23101;SDS011;11720;51.214;22.574;2023-04-25T13:47:02;7.97;;;5.30;;
23101;SDS011;11720;51.214;22.574;2023-04-25T13:49:29;6.43;;;3.80;;
23101;SDS011;11720;51.214;22.574;2023-04-25T13:51:57;10.37;;;6.47;;
23101;SDS011;11720;51.214;22.574;2023-04-25T13:54:33;5.50;;;3.87;;
23101;SDS011;11720;51.214;22.574;2023-04-25T13:56:59;7.50;;;5.47;;
23101;SDS011;11720;51.214;22.574;2023-04-25T13:59:25;14.57;;;5.77;;
23101;SDS011;11720;51.214;22.574;2023-04-25T14:01:51;10.02;;;5.40;;
23101;SDS011;11720;51.214;22.574;2023-04-25T14:04:17;9.20;;;5.90;;
23101;SDS011;11720;51.214;22.574;2023-04-25T14:06:42;8.35;;;5.07;;
23101;SDS011;11720;51.214;22.574;2023-04-25T14:09:08;9.30;;;4.97;;
23101;SDS011;11720;51.214;22.574;2023-04-25T14:11:37;8.63;;;5.40;;
23101;SDS011;11720;51.214;22.574;2023-04-25T14:14:03;9.95;;;5.80;;
23101;SDS011;11720;51.214;22.574;2023-04-25T14:16:29;8.27;;;5.50;;
23101;SDS011;11720;51.214;22.574;2023-04-25T14:18:56;9.02;;;5.47;;
23101;SDS011;11720;51.214;22.574;2023-04-25T14:21:25;9.90;;;5.30;;
23101;SDS011;11720;51.214;22.574;2023-04-25T14:23:52;12.60;;;7.28;;
23101;SDS011;11720;51.214;22.574;2023-04-25T14:26:18;12.05;;;6.00;;
23101;SDS011;11720;51.214;22.574;2023-04-25T14:28:44;11.38;;;7.05;;
23101;SDS011;11720;51.214;22.574;2023-04-25T14:31:10;11.90;;;7.40;;
23101;SDS011;11720;51.214;22.574;2023-04-25T14:33:36;12.52;;;6.05;;
23101;SDS011;11720;51.214;22.574;2023-04-25T14:36:04;12.15;;;6.13;;
23101;SDS011;11720;51.214;22.574;2023-04-25T14:38:30;8.90;;;5.68;;
23101;SDS011;11720;51.214;22.574;2023-04-25T14:40:56;11.83;;;6.67;;
23101;SDS011;11720;51.214;22.574;2023-04-25T14:43:22;11.80;;;6.97;;
23101;SDS011;11720;51.214;22.574;2023-04-25T14:45:51;10.47;;;5.67;;